Time;durP1;ratioP1;P1;durP2;ratioP2;P2;SDS_P1;SDS_P2;PMS_P1;PMS_P2;Temp;Humidity;BMP_temperature;BMP_pressure;BME280_temperature;BME280_humidity;BME280_pressure;Samples;Min_cycle;Max_cycle;Signal;HPM_P1;HPM_P2
2021/10/17 00:00:55;;;;;;;22.48;14.20;;;11.10;99.90;;;;;;5021991;28;20085;-59
2021/10/17 00:03:22;;;;;;;16.75;13.23;;;11.10;99.90;;;;;;5019671;28;20045;-59
2021/10/17 00:05:49;;;;;;;19.45;13.57;;;11.10;99.90;;;;;;5021314;28;20571;-59
2021/10/17 00:08:15;;;;;;;19.65;14.32;;;11.00;99.90;;;;;;5020367;28;20079;-59
2021/10/17 00:10:43;;;;;;;16.90;13.43;;;11.00;99.90;;;;;;5020277;28;20505;-60
2021/10/17 00:13:10;;;;;;;19.55;14.02;;;11.00;99.90;;;;;;5020319;28;20077;-59
2021/10/17 00:15:40;;;;;;;15.00;12.23;;;10.90;99.90;;;;;;5021053;28;20049;-59
2021/10/17 00:18:07;;;;;;;19.27;12.68;;;10.90;99.90;;;;;;5020572;28;20274;-59
2021/10/17 00:20:34;;;;;;;16.92;13.02;;;10.90;99.90;;;;;;5021757;28;20073;-58
2021/10/17 00:23:01;;;;;;;17.17;12.70;;;10.80;99.90;;;;;;5021268;28;20614;-59
2021/10/17 00:25:28;;;;;;;20.67;13.38;;;10.80;99.90;;;;;;5021043;28;20077;-59
2021/10/17 00:27:54;;;;;;;17.88;13.60;;;10.80;99.90;;;;;;5021025;28;20149;-59
2021/10/17 00:30:21;;;;;;;25.02;14.27;;;10.80;99.90;;;;;;5019740;28;20496;-59
2021/10/17 00:32:48;;;;;;;18.13;13.00;;;10.70;99.90;;;;;;5019694;28;20060;-59
2021/10/17 00:35:15;;;;;;;18.25;13.45;;;10.70;99.90;;;;;;5019825;28;20492;-59
2021/10/17 00:37:42;;;;;;;22.38;13.23;;;10.70;99.90;;;;;;5021223;28;20552;-59
2021/10/17 00:40:13;;;;;;;20.10;14.80;;;10.70;99.90;;;;;;5018632;28;20168;-59
2021/10/17 00:42:42;;;;;;;17.35;13.10;;;10.60;99.90;;;;;;5018398;28;20306;-59
2021/10/17 00:45:10;;;;;;;18.48;13.27;;;10.60;99.90;;;;;;5019805;28;20069;-59
2021/10/17 00:47:37;;;;;;;18.88;13.02;;;10.60;99.90;;;;;;5022526;28;20132;-58
2021/10/17 00:50:04;;;;;;;22.58;15.00;;;10.60;99.90;;;;;;5023168;28;20496;-59
2021/10/17 00:52:31;;;;;;;19.80;14.27;;;10.60;99.90;;;;;;5023025;28;20128;-59
2021/10/17 00:54:58;;;;;;;19.80;14.07;;;10.60;99.90;;;;;;5002588;28;20156;-59
2021/10/17 00:57:24;;;;;;;23.52;15.20;;;10.60;99.90;;;;;;5022444;28;20073;-59
2021/10/17 00:59:51;;;;;;;18.98;15.02;;;10.70;99.90;;;;;;5021551;28;20167;-58
2021/10/17 01:02:18;;;;;;;20.48;14.10;;;10.70;99.90;;;;;;5021487;28;20095;-58
2021/10/17 01:04:45;;;;;;;18.05;13.77;;;10.80;99.90;;;;;;5017729;28;20130;-58
2021/10/17 01:07:12;;;;;;;18.73;13.75;;;10.80;99.90;;;;;;5020084;28;20077;-58
2021/10/17 01:09:38;;;;;;;21.23;14.68;;;10.80;99.90;;;;;;5019930;28;20132;-58
2021/10/17 01:12:06;;;;;;;18.98;13.55;;;10.90;99.90;;;;;;5022519;28;20083;-58
2021/10/17 01:14:32;;;;;;;19.17;14.07;;;10.90;99.90;;;;;;5017900;28;20857;-59
2021/10/17 01:16:59;;;;;;;18.30;13.25;;;10.90;99.90;;;;;;5021215;28;20095;-58
2021/10/17 01:19:26;;;;;;;16.48;12.57;;;10.90;99.90;;;;;;5022495;28;20152;-59
2021/10/17 01:21:52;;;;;;;16.70;12.07;;;10.90;99.90;;;;;;5022432;28;20060;-59
2021/10/17 01:24:19;;;;;;;15.88;12.63;;;10.90;99.90;;;;;;5019430;28;20099;-59
2021/10/17 01:26:46;;;;;;;16.58;12.65;;;10.90;99.90;;;;;;5019165;28;20124;-59
2021/10/17 01:29:13;;;;;;;16.90;11.73;;;10.90;99.90;;;;;;5021653;28;20136;-59
2021/10/17 01:31:46;;;;;;;14.43;11.32;;;10.90;99.90;;;;;;5023049;28;20045;-60
2021/10/17 01:34:13;;;;;;;21.40;13.48;;;10.90;99.90;;;;;;5023525;28;20050;-58
2021/10/17 01:36:41;;;;;;;13.93;11.55;;;11.00;99.90;;;;;;5023335;28;20084;-59
2021/10/17 01:39:13;;;;;;;18.45;11.88;;;11.00;99.90;;;;;;5022605;28;20049;-59
2021/10/17 01:41:39;;;;;;;14.32;11.65;;;11.00;99.90;;;;;;5023521;28;20054;-59
2021/10/17 01:44:10;;;;;;;17.10;12.00;;;11.00;99.90;;;;;;5025057;28;20085;-58
2021/10/17 01:46:37;;;;;;;17.70;12.20;;;11.00;99.90;;;;;;5025085;28;20080;-58
2021/10/17 01:49:05;;;;;;;19.90;13.73;;;11.00;99.90;;;;;;5040355;28;20118;-58
2021/10/17 01:51:32;;;;;;;16.10;11.52;;;10.90;99.90;;;;;;5025394;28;20057;-59
2021/10/17 01:53:59;;;;;;;13.68;10.90;;;10.90;99.90;;;;;;5025231;28;20083;-59
2021/10/17 01:56:25;;;;;;;14.32;10.20;;;10.90;99.90;;;;;;5024004;28;20077;-59
2021/10/17 01:58:52;;;;;;;15.75;10.75;;;10.90;99.90;;;;;;5024298;28;20132;-58
2021/10/17 02:01:19;;;;;;;13.23;10.80;;;10.80;99.90;;;;;;5024576;28;20132;-60
2021/10/17 02:03:46;;;;;;;15.48;10.63;;;10.70;99.90;;;;;;5024028;28;20045;-59
2021/10/17 02:06:13;;;;;;;17.48;11.07;;;10.70;99.90;;;;;;5025188;28;20069;-58
2021/10/17 02:08:39;;;;;;;14.35;10.48;;;10.60;99.90;;;;;;5024809;28;20153;-58
2021/10/17 02:11:06;;;;;;;14.15;10.65;;;10.60;99.90;;;;;;5024391;28;20133;-58
2021/10/17 02:13:33;;;;;;;14.77;11.82;;;10.60;99.90;;;;;;5023310;28;20161;-59
2021/10/17 02:16:00;;;;;;;15.38;11.32;;;10.60;99.90;;;;;;5024949;28;20045;-58
2021/10/17 02:18:26;;;;;;;14.52;10.63;;;10.50;99.90;;;;;;5024053;28;20940;-58
2021/10/17 02:20:53;;;;;;;11.75;10.35;;;10.50;99.90;;;;;;5007723;28;20045;-58
2021/10/17 02:23:20;;;;;;;13.13;10.02;;;10.50;99.90;;;;;;5024567;28;20125;-58
2021/10/17 02:25:47;;;;;;;12.60;10.10;;;10.50;99.90;;;;;;5025638;28;20714;-59
2021/10/17 02:28:13;;;;;;;15.40;11.23;;;10.50;99.90;;;;;;5025322;28;20132;-59
2021/10/17 02:30:40;;;;;;;15.48;10.65;;;10.50;99.90;;;;;;5025710;28;20049;-59
2021/10/17 02:33:07;;;;;;;13.02;10.23;;;10.60;99.90;;;;;;5025335;28;20041;-59
2021/10/17 02:35:33;;;;;;;14.27;11.10;;;10.60;99.90;;;;;;5041442;28;20101;-59
2021/10/17 02:38:00;;;;;;;17.83;12.13;;;10.60;99.90;;;;;;5026060;28;20464;-59
2021/10/17 02:40:27;;;;;;;16.67;11.23;;;10.70;99.90;;;;;;5026489;28;20060;-59
2021/10/17 02:42:54;;;;;;;14.38;10.68;;;10.70;99.90;;;;;;5025395;28;20526;-59
2021/10/17 02:45:20;;;;;;;15.82;12.77;;;10.80;99.90;;;;;;5026272;28;20049;-59
2021/10/17 02:47:47;;;;;;;19.10;11.88;;;10.90;99.90;;;;;;5025542;28;20115;-59
2021/10/17 02:50:14;;;;;;;21.35;12.32;;;11.00;99.90;;;;;;5026438;28;20049;-59
2021/10/17 02:52:41;;;;;;;18.83;11.90;;;11.10;99.90;;;;;;5025761;28;20050;-59
2021/10/17 02:55:08;;;;;;;18.48;12.52;;;11.20;99.90;;;;;;5026275;28;20168;-58
2021/10/17 02:57:35;;;;;;;13.95;11.77;;;11.20;99.90;;;;;;5025108;28;20115;-59
2021/10/17 03:00:02;;;;;;;18.05;11.13;;;11.30;99.90;;;;;;5021952;28;20467;-59
2021/10/17 03:02:29;;;;;;;18.02;12.50;;;11.30;99.90;;;;;;5023044;28;20692;-59
2021/10/17 03:04:56;;;;;;;22.50;12.35;;;11.40;99.90;;;;;;5026040;28;20137;-58
2021/10/17 03:07:23;;;;;;;14.73;11.48;;;11.40;99.90;;;;;;5026427;28;20503;-61
2021/10/17 03:09:49;;;;;;;20.73;13.13;;;11.50;99.90;;;;;;5025638;28;20459;-58
2021/10/17 03:12:16;;;;;;;18.92;13.50;;;11.50;99.90;;;;;;5024791;28;20128;-58
2021/10/17 03:14:43;;;;;;;20.05;13.15;;;11.60;99.90;;;;;;5024783;28;20080;-58
2021/10/17 03:17:09;;;;;;;17.70;13.52;;;11.60;99.90;;;;;;5025939;28;20084;-58
2021/10/17 03:19:36;;;;;;;19.58;13.95;;;11.70;99.90;;;;;;5025674;28;21892;-58
2021/10/17 03:22:03;;;;;;;15.85;12.80;;;11.70;99.90;;;;;;5025895;28;20073;-58
2021/10/17 03:24:30;;;;;;;16.63;12.98;;;11.80;99.90;;;;;;5025712;28;20141;-58
2021/10/17 03:26:56;;;;;;;18.38;12.70;;;11.80;99.90;;;;;;5024834;28;20084;-58
2021/10/17 03:29:23;;;;;;;16.67;13.75;;;11.80;99.90;;;;;;5024801;28;20546;-59
2021/10/17 03:31:50;;;;;;;18.67;13.68;;;11.80;99.90;;;;;;5025110;28;20060;-58
2021/10/17 03:34:17;;;;;;;16.10;13.45;;;11.80;99.90;;;;;;5024723;28;20503;-59
2021/10/17 03:36:43;;;;;;;16.35;14.38;;;11.90;99.90;;;;;;5025448;28;20045;-58
2021/10/17 03:39:10;;;;;;;17.17;12.98;;;11.90;99.90;;;;;;5040378;28;20081;-59
2021/10/17 03:41:37;;;;;;;17.83;13.10;;;12.00;99.90;;;;;;5024945;28;20458;-59
2021/10/17 03:44:04;;;;;;;18.27;14.82;;;12.00;99.90;;;;;;5024069;28;20140;-59
2021/10/17 03:46:31;;;;;;;21.35;14.52;;;12.00;99.90;;;;;;5025514;28;20046;-59
2021/10/17 03:48:58;;;;;;;19.42;13.02;;;12.10;99.90;;;;;;5026036;28;20049;-59
2021/10/17 03:51:24;;;;;;;16.40;13.13;;;12.10;99.90;;;;;;5025538;28;20045;-59
2021/10/17 03:53:51;;;;;;;17.55;14.13;;;12.10;99.90;;;;;;5025732;28;20049;-59
2021/10/17 03:56:18;;;;;;;21.35;12.57;;;12.10;99.90;;;;;;5025404;28;20464;-59
2021/10/17 03:58:45;;;;;;;20.63;13.68;;;12.20;99.90;;;;;;5024072;28;20136;-59
2021/10/17 04:01:11;;;;;;;18.75;13.82;;;12.20;99.90;;;;;;5025445;28;20079;-59
2021/10/17 04:03:38;;;;;;;16.05;11.82;;;12.20;99.90;;;;;;5039164;28;20132;-59
2021/10/17 04:06:08;;;;;;;17.27;13.15;;;12.20;99.90;;;;;;5040509;28;20072;-59
2021/10/17 04:08:35;;;;;;;19.73;14.85;;;12.20;99.90;;;;;;5025143;28;20963;-59
2021/10/17 04:11:01;;;;;;;15.82;12.20;;;12.20;99.90;;;;;;5024792;28;20052;-59
2021/10/17 04:13:28;;;;;;;16.45;13.10;;;12.20;99.90;;;;;;5039864;28;20057;-59
2021/10/17 04:15:58;;;;;;;20.45;12.98;;;12.20;99.90;;;;;;5025220;28;20051;-59
2021/10/17 04:18:25;;;;;;;17.30;12.68;;;12.30;99.90;;;;;;5024313;28;20092;-59
2021/10/17 04:20:52;;;;;;;15.18;12.43;;;12.30;99.90;;;;;;5027457;28;20061;-59
2021/10/17 04:23:19;;;;;;;15.98;11.45;;;12.20;99.90;;;;;;5028263;28;20091;-59
2021/10/17 04:25:45;;;;;;;19.45;13.52;;;12.20;99.90;;;;;;5028316;28;20065;-59
2021/10/17 04:28:12;;;;;;;15.45;12.32;;;12.20;99.90;;;;;;5027637;28;20053;-58
2021/10/17 04:30:39;;;;;;;16.83;12.73;;;12.20;99.90;;;;;;5029227;28;20045;-58
2021/10/17 04:33:06;;;;;;;14.32;12.10;;;12.20;99.90;;;;;;5027958;28;20486;-58
2021/10/17 04:35:34;;;;;;;16.42;12.95;;;12.20;99.90;;;;;;5028487;28;20590;-59
2021/10/17 04:38:05;;;;;;;15.48;11.45;;;12.20;99.90;;;;;;5027894;28;20080;-59
2021/10/17 04:40:32;;;;;;;15.32;11.52;;;12.20;99.90;;;;;;5027508;28;20175;-59
2021/10/17 04:43:03;;;;;;;18.75;12.23;;;12.20;99.90;;;;;;5027293;28;20084;-58
2021/10/17 04:45:29;;;;;;;14.35;10.85;;;12.20;99.90;;;;;;5011954;28;20079;-58
2021/10/17 04:47:56;;;;;;;14.48;10.80;;;12.20;99.90;;;;;;5027636;28;20504;-58
2021/10/17 04:50:23;;;;;;;14.68;11.45;;;12.20;99.90;;;;;;5024286;28;20088;-58
2021/10/17 04:52:50;;;;;;;13.75;11.50;;;12.20;99.90;;;;;;5026908;28;20077;-59
2021/10/17 04:55:16;;;;;;;15.30;10.40;;;12.20;99.90;;;;;;5026490;28;20114;-59
2021/10/17 04:57:43;;;;;;;15.88;10.40;;;12.20;99.90;;;;;;5024018;28;20075;-59
2021/10/17 05:00:10;;;;;;;12.13;10.82;;;12.20;99.90;;;;;;5024854;28;21105;-58
2021/10/17 05:02:37;;;;;;;16.63;11.75;;;12.20;99.90;;;;;;5024281;28;20050;-59
2021/10/17 05:05:07;;;;;;;14.02;10.05;;;12.20;99.90;;;;;;5023926;28;20175;-59
2021/10/17 05:07:33;;;;;;;16.73;11.18;;;12.20;99.90;;;;;;5025344;28;20076;-59
2021/10/17 05:10:00;;;;;;;18.17;12.05;;;12.20;99.90;;;;;;5027647;28;20085;-59
2021/10/17 05:12:27;;;;;;;13.05;10.77;;;12.20;99.90;;;;;;5025066;28;20130;-59
2021/10/17 05:14:53;;;;;;;13.43;10.35;;;12.10;99.90;;;;;;5023931;28;20569;-59
2021/10/17 05:17:20;;;;;;;13.77;10.30;;;12.10;99.90;;;;;;5023570;28;20152;-59
2021/10/17 05:19:47;;;;;;;14.32;10.82;;;12.10;99.90;;;;;;5023997;28;20139;-60
2021/10/17 05:22:14;;;;;;;15.73;12.05;;;12.20;99.90;;;;;;5024127;28;20188;-59
2021/10/17 05:24:40;;;;;;;14.85;10.88;;;12.10;99.90;;;;;;5024048;28;20581;-59
2021/10/17 05:27:07;;;;;;;13.02;10.23;;;12.20;99.90;;;;;;5019374;28;20073;-59
2021/10/17 05:29:34;;;;;;;13.15;10.43;;;12.20;99.90;;;;;;5023402;28;20128;-59
2021/10/17 05:32:01;;;;;;;12.88;10.32;;;12.20;99.90;;;;;;5023133;28;20045;-59
2021/10/17 05:34:27;;;;;;;12.13;10.40;;;12.20;99.90;;;;;;5023536;28;20144;-59
2021/10/17 05:36:54;;;;;;;20.08;10.63;;;12.20;99.90;;;;;;5023426;28;20083;-59
2021/10/17 05:39:21;;;;;;;16.10;10.80;;;12.20;99.90;;;;;;5025871;28;20144;-59
2021/10/17 05:41:47;;;;;;;14.48;10.18;;;12.20;99.90;;;;;;5026187;28;20548;-59
2021/10/17 05:44:14;;;;;;;13.98;9.73;;;12.20;99.90;;;;;;5026518;28;20087;-59
2021/10/17 05:46:41;;;;;;;13.25;10.07;;;12.30;99.90;;;;;;5025906;28;20128;-59
2021/10/17 05:49:08;;;;;;;14.45;9.70;;;12.30;99.90;;;;;;5026246;28;20057;-59
2021/10/17 05:51:35;;;;;;;12.30;10.32;;;12.30;99.90;;;;;;5026335;28;20132;-59
2021/10/17 05:54:01;;;;;;;14.98;10.52;;;12.30;99.90;;;;;;5025806;28;20084;-59
2021/10/17 05:56:28;;;;;;;12.13;10.25;;;12.30;99.90;;;;;;5026380;28;20140;-59
2021/10/17 05:58:55;;;;;;;14.05;9.27;;;12.30;99.90;;;;;;5025076;28;20512;-59
2021/10/17 06:01:21;;;;;;;12.95;9.65;;;12.30;99.90;;;;;;5024707;28;20137;-59
2021/10/17 06:03:48;;;;;;;13.98;9.85;;;12.20;99.90;;;;;;5021873;28;20069;-59
2021/10/17 06:06:15;;;;;;;12.68;9.32;;;12.20;99.90;;;;;;5023136;28;20096;-59
2021/10/17 06:08:42;;;;;;;11.52;9.63;;;12.20;99.90;;;;;;5022264;28;20099;-59
2021/10/17 06:11:08;;;;;;;13.88;9.13;;;12.30;99.90;;;;;;5022989;28;20156;-59
2021/10/17 06:13:35;;;;;;;16.08;9.90;;;12.30;99.90;;;;;;5020849;28;20128;-59
2021/10/17 06:16:02;;;;;;;14.40;9.05;;;12.30;99.90;;;;;;5020575;28;20140;-59
2021/10/17 06:18:31;;;;;;;13.80;9.95;;;12.20;99.90;;;;;;5018573;28;20141;-59
2021/10/17 06:20:57;;;;;;;12.15;8.85;;;12.20;99.90;;;;;;5020122;28;20080;-59
2021/10/17 06:23:24;;;;;;;12.05;8.63;;;12.20;99.90;;;;;;5016874;28;20049;-59
2021/10/17 06:25:51;;;;;;;12.57;8.80;;;12.20;99.90;;;;;;5018606;28;20140;-59
2021/10/17 06:28:18;;;;;;;14.88;10.85;;;12.20;99.90;;;;;;5014432;28;20069;-59
2021/10/17 06:30:45;;;;;;;14.15;10.80;;;12.20;99.90;;;;;;5016075;28;20057;-60
2021/10/17 06:33:12;;;;;;;15.15;11.85;;;12.20;99.90;;;;;;5014868;28;20056;-59
2021/10/17 06:35:39;;;;;;;11.68;9.30;;;12.20;99.90;;;;;;5018684;28;20081;-59
2021/10/17 06:38:05;;;;;;;12.32;9.32;;;12.20;99.90;;;;;;5019911;28;20804;-59
2021/10/17 06:40:32;;;;;;;14.65;9.40;;;12.20;99.90;;;;;;5020267;28;20064;-59
2021/10/17 06:42:59;;;;;;;11.18;8.27;;;12.20;99.90;;;;;;5016571;28;20042;-59
2021/10/17 06:45:26;;;;;;;11.95;8.00;;;12.20;99.90;;;;;;5018124;28;20083;-59
2021/10/17 06:47:53;;;;;;;10.68;7.80;;;12.20;99.90;;;;;;5018603;28;20060;-61
2021/10/17 06:50:20;;;;;;;13.10;8.90;;;12.20;99.90;;;;;;5019001;28;20092;-59
2021/10/17 06:52:48;;;;;;;9.88;7.85;;;12.30;99.90;;;;;;5019356;28;20081;-59
2021/10/17 06:55:15;;;;;;;11.52;8.23;;;12.30;99.90;;;;;;5019515;28;20128;-59
2021/10/17 06:57:42;;;;;;;11.52;8.07;;;12.30;99.90;;;;;;5018121;28;20084;-58
2021/10/17 07:00:09;;;;;;;11.13;7.88;;;12.30;99.90;;;;;;5017213;28;20069;-59
2021/10/17 07:02:35;;;;;;;10.85;8.07;;;12.40;99.90;;;;;;5017552;28;20128;-59
2021/10/17 07:05:03;;;;;;;9.82;7.40;;;12.40;99.90;;;;;;5018328;28;20113;-59
2021/10/17 07:07:30;;;;;;;12.05;7.60;;;12.40;99.90;;;;;;5017455;28;20125;-60
2021/10/17 07:09:57;;;;;;;8.75;7.85;;;12.50;99.90;;;;;;5018888;28;20050;-59
2021/10/17 07:12:24;;;;;;;10.20;7.10;;;12.50;99.90;;;;;;5018445;28;20161;-60
2021/10/17 07:14:52;;;;;;;10.32;6.93;;;12.60;99.90;;;;;;5018399;28;20107;-59
2021/10/17 07:17:19;;;;;;;6.95;6.15;;;12.60;99.90;;;;;;5017120;28;20120;-59
2021/10/17 07:19:46;;;;;;;11.80;6.30;;;12.70;99.90;;;;;;5018181;28;20132;-59
2021/10/17 07:22:13;;;;;;;8.20;6.20;;;12.70;99.90;;;;;;5018151;28;20120;-59
2021/10/17 07:24:39;;;;;;;11.48;6.43;;;12.70;99.90;;;;;;5016253;28;20053;-59
2021/10/17 07:27:06;;;;;;;11.75;5.50;;;12.80;99.90;;;;;;5018153;28;20073;-59
2021/10/17 07:29:33;;;;;;;7.65;5.30;;;12.80;99.90;;;;;;5017763;28;20080;-59
2021/10/17 07:32:00;;;;;;;8.35;6.25;;;12.90;99.90;;;;;;5016954;28;20152;-59
2021/10/17 07:34:27;;;;;;;8.95;5.97;;;13.00;99.90;;;;;;5017443;28;20080;-59
2021/10/17 07:36:54;;;;;;;8.93;7.18;;;13.00;99.90;;;;;;5018082;28;20133;-59
2021/10/17 07:39:21;;;;;;;9.98;5.45;;;13.10;99.90;;;;;;5017671;28;20478;-59
2021/10/17 07:41:48;;;;;;;11.25;6.25;;;13.10;99.90;;;;;;5017754;28;20081;-59
2021/10/17 07:44:18;;;;;;;8.25;5.20;;;13.10;99.90;;;;;;5015817;28;20477;-59
2021/10/17 07:46:45;;;;;;;8.98;4.63;;;13.20;99.90;;;;;;5012210;28;20473;-59
2021/10/17 07:49:12;;;;;;;7.30;5.75;;;13.20;99.90;;;;;;5013268;28;20171;-59
2021/10/17 07:51:38;;;;;;;6.82;4.68;;;13.30;99.90;;;;;;5017899;28;20144;-58
2021/10/17 07:54:05;;;;;;;8.35;5.55;;;13.30;99.90;;;;;;5015118;28;20088;-59
2021/10/17 07:56:32;;;;;;;5.60;4.53;;;13.40;99.90;;;;;;5027014;28;20823;-59
2021/10/17 07:58:59;;;;;;;6.65;4.65;;;13.50;99.90;;;;;;5016430;28;20164;-59
2021/10/17 08:01:25;;;;;;;9.30;5.50;;;13.60;99.90;;;;;;5020576;28;20496;-59
2021/10/17 08:03:52;;;;;;;8.35;5.10;;;13.60;99.90;;;;;;5019265;28;20240;-59
2021/10/17 08:06:19;;;;;;;5.90;5.30;;;13.60;99.50;;;;;;5019920;28;20088;-59
2021/10/17 08:08:46;;;;;;;9.07;4.78;;;13.60;99.70;;;;;;5018652;28;20092;-60
2021/10/17 08:11:15;;;;;;;8.38;4.28;;;13.70;99.70;;;;;;5018245;28;20075;-59
2021/10/17 08:13:43;;;;;;;5.95;4.15;;;13.70;99.60;;;;;;5019652;28;20111;-59
2021/10/17 08:16:11;;;;;;;7.15;4.40;;;13.70;99.40;;;;;;5021460;28;20083;-59
2021/10/17 08:18:38;;;;;;;10.85;4.32;;;13.80;99.40;;;;;;5035749;28;20412;-59
2021/10/17 08:21:05;;;;;;;7.18;4.75;;;13.80;99.30;;;;;;5021135;28;20468;-59
2021/10/17 08:23:33;;;;;;;7.82;4.38;;;13.80;99.40;;;;;;5018724;28;20080;-59
2021/10/17 08:26:00;;;;;;;6.40;4.05;;;13.90;99.40;;;;;;5021911;28;20435;-59
2021/10/17 08:28:28;;;;;;;6.07;4.22;;;13.90;99.30;;;;;;5019770;28;20096;-59
2021/10/17 08:30:58;;;;;;;9.00;4.63;;;14.00;99.20;;;;;;5020678;28;20056;-59
2021/10/17 08:33:26;;;;;;;10.30;5.25;;;14.00;99.10;;;;;;5020048;28;20052;-59
2021/10/17 08:35:53;;;;;;;7.10;4.38;;;14.00;99.10;;;;;;5020817;28;20220;-59
2021/10/17 08:38:21;;;;;;;8.13;4.60;;;14.10;99.00;;;;;;5020841;28;20135;-59
2021/10/17 08:40:49;;;;;;;6.03;4.22;;;14.10;99.10;;;;;;5019640;28;20045;-59
2021/10/17 08:43:17;;;;;;;8.60;4.70;;;14.10;98.80;;;;;;5019232;28;20049;-59
2021/10/17 08:45:45;;;;;;;6.53;4.20;;;14.10;98.40;;;;;;5020626;28;20383;-59
2021/10/17 08:48:12;;;;;;;6.32;4.18;;;14.10;98.80;;;;;;5020668;28;20077;-59
2021/10/17 08:50:40;;;;;;;5.32;3.88;;;14.20;98.50;;;;;;5020738;28;20331;-59
2021/10/17 08:53:07;;;;;;;5.80;3.35;;;14.20;98.60;;;;;;5019405;28;20069;-59
2021/10/17 08:55:33;;;;;;;15.70;4.32;;;14.20;98.70;;;;;;5019748;28;20054;-59
2021/10/17 08:58:00;;;;;;;7.78;4.43;;;14.20;98.50;;;;;;5020256;28;20132;-59
2021/10/17 09:00:34;;;;;;;11.55;4.03;;;14.20;98.50;;;;;;5018662;28;20132;-59
2021/10/17 09:03:02;;;;;;;8.07;4.25;;;14.20;98.40;;;;;;5020111;28;20068;-59
2021/10/17 09:05:43;;;;;;;6.90;4.18;;;14.30;98.20;;;;;;5018561;28;20525;-59
2021/10/17 09:08:15;;;;;;;9.70;5.32;;;14.30;98.40;;;;;;5020378;28;20049;-59
2021/10/17 09:10:49;;;;;;;9.02;4.50;;;14.30;98.00;;;;;;5011449;28;20057;-59
2021/10/17 09:13:16;;;;;;;7.53;4.10;;;14.30;98.30;;;;;;5019463;28;20072;-59
2021/10/17 09:15:44;;;;;;;8.02;4.63;;;14.30;98.10;;;;;;5018636;28;20061;-59
2021/10/17 09:18:17;;;;;;;14.52;3.75;;;14.30;98.10;;;;;;5019922;28;20060;-59
2021/10/17 09:20:47;;;;;;;7.43;3.40;;;14.30;97.70;;;;;;5019115;28;20228;-59
2021/10/17 09:23:21;;;;;;;4.35;3.13;;;14.40;97.70;;;;;;5019314;28;20054;-59
2021/10/17 09:25:52;;;;;;;5.43;2.92;;;14.40;97.60;;;;;;5020021;28;20167;-59
2021/10/17 09:28:26;;;;;;;6.72;3.53;;;14.40;97.50;;;;;;5019033;28;20132;-59
2021/10/17 09:31:03;;;;;;;6.32;4.30;;;14.40;97.30;;;;;;5016624;28;20140;-59
2021/10/17 09:33:41;;;;;;;4.22;2.97;;;14.40;97.30;;;;;;5014800;28;20399;-59
2021/10/17 09:36:27;;;;;;;6.03;3.63;;;14.40;97.30;;;;;;5016185;28;20127;-59
2021/10/17 09:38:58;;;;;;;7.30;3.50;;;14.40;96.80;;;;;;5007998;28;20049;-59
2021/10/17 09:41:34;;;;;;;6.22;3.08;;;14.50;97.40;;;;;;5019142;28;20049;-59
2021/10/17 09:44:02;;;;;;;8.02;3.50;;;14.50;97.20;;;;;;5018130;28;20129;-58
2021/10/17 09:46:29;;;;;;;6.75;3.65;;;14.50;96.90;;;;;;5020154;28;20168;-59
2021/10/17 09:48:56;;;;;;;5.95;3.88;;;14.60;97.10;;;;;;5019675;28;20511;-59
2021/10/17 09:51:28;;;;;;;4.30;3.03;;;14.60;97.00;;;;;;5019234;28;20077;-59
2021/10/17 09:53:59;;;;;;;7.18;3.17;;;14.70;96.70;;;;;;4999463;28;20373;-60
2021/10/17 09:56:39;;;;;;;6.63;3.20;;;14.70;96.50;;;;;;5019415;28;20063;-58
2021/10/17 09:59:10;;;;;;;7.40;3.47;;;14.70;96.10;;;;;;5018343;28;20055;-59
2021/10/17 10:01:37;;;;;;;10.60;3.35;;;14.80;96.60;;;;;;5033048;28;20136;-60
2021/10/17 10:04:06;;;;;;;9.70;3.55;;;14.90;96.00;;;;;;5019211;28;20054;-60
2021/10/17 10:06:33;;;;;;;7.50;3.25;;;14.90;96.30;;;;;;5019761;28;20521;-59
2021/10/17 10:09:02;;;;;;;5.47;3.33;;;15.10;96.20;;;;;;5018570;28;20120;-60
2021/10/17 10:11:30;;;;;;;5.15;3.17;;;15.20;96.10;;;;;;5017538;28;20140;-59
2021/10/17 10:13:58;;;;;;;8.35;3.45;;;15.30;96.10;;;;;;5015717;28;20132;-59
2021/10/17 10:16:26;;;;;;;5.82;3.50;;;15.40;95.10;;;;;;5018419;28;20080;-59
2021/10/17 10:18:57;;;;;;;6.13;3.00;;;15.40;95.90;;;;;;5016399;28;20106;-59
2021/10/17 10:21:24;;;;;;;5.03;2.67;;;15.50;95.40;;;;;;5018855;28;20484;-59
2021/10/17 10:23:52;;;;;;;7.07;3.30;;;15.50;95.40;;;;;;5019121;28;20077;-59
2021/10/17 10:26:22;;;;;;;8.63;3.55;;;15.60;95.10;;;;;;5017911;28;20231;-60
2021/10/17 10:28:50;;;;;;;8.48;3.55;;;15.60;95.50;;;;;;5016873;28;20201;-59
2021/10/17 10:31:42;;;;;;;6.43;2.95;;;15.70;95.00;;;;;;5019539;28;20075;-59
2021/10/17 10:34:10;;;;;;;10.85;3.10;;;15.70;94.80;;;;;;5011637;28;20069;-59
2021/10/17 10:36:41;;;;;;;7.72;3.17;;;15.70;94.70;;;;;;5018067;28;20564;-58
2021/10/17 10:39:10;;;;;;;4.97;2.42;;;15.70;94.90;;;;;;5019512;28;20491;-59
2021/10/17 10:41:44;;;;;;;5.38;2.85;;;15.70;94.80;;;;;;5019193;28;20130;-59
2021/10/17 10:44:23;;;;;;;5.97;2.70;;;15.70;94.60;;;;;;5015635;28;20119;-59
2021/10/17 10:46:50;;;;;;;6.70;2.70;;;15.70;94.60;;;;;;5017851;28;20072;-59
2021/10/17 10:49:43;;;;;;;8.80;2.80;;;15.80;94.80;;;;;;5018465;28;20476;-60
2021/10/17 10:52:21;;;;;;;6.22;2.67;;;15.80;93.90;;;;;;5012290;28;20127;-59
2021/10/17 10:54:49;;;;;;;5.40;2.40;;;15.90;94.30;;;;;;5016596;28;20046;-60
2021/10/17 10:57:24;;;;;;;5.43;3.08;;;15.90;94.20;;;;;;5018045;28;20093;-60
2021/10/17 11:00:14;;;;;;;4.90;2.80;;;16.00;93.80;;;;;;5018612;28;20079;-60
2021/10/17 11:03:09;;;;;;;5.53;3.88;;;16.00;93.90;;;;;;5018020;28;20072;-59
2021/10/17 11:05:36;;;;;;;6.57;2.75;;;16.00;93.70;;;;;;5003945;28;20089;-60
2021/10/17 11:08:13;;;;;;;8.43;4.20;;;16.10;93.90;;;;;;5016699;28;20173;-60
2021/10/17 11:10:44;;;;;;;6.78;3.17;;;16.10;93.70;;;;;;5019542;28;20719;-60
2021/10/17 11:13:11;;;;;;;5.45;2.78;;;16.10;93.80;;;;;;5016826;28;20133;-59
2021/10/17 11:15:39;;;;;;;4.88;2.65;;;16.00;94.00;;;;;;5017411;28;20534;-60
2021/10/17 11:18:07;;;;;;;9.57;2.88;;;16.10;93.90;;;;;;5017138;28;20483;-59
2021/10/17 11:20:41;;;;;;;4.22;2.78;;;16.00;93.70;;;;;;5016711;28;20415;-60
2021/10/17 11:23:22;;;;;;;5.72;3.10;;;16.00;93.80;;;;;;5017468;28;20485;-59
2021/10/17 11:25:55;;;;;;;6.15;2.30;;;16.00;93.60;;;;;;5018555;28;20533;-59
2021/10/17 11:28:26;;;;;;;4.53;2.30;;;16.00;93.20;;;;;;5015567;28;20068;-60
2021/10/17 11:31:15;;;;;;;6.85;3.03;;;16.10;93.40;;;;;;5015174;28;20528;-60
2021/10/17 11:33:43;;;;;;;6.50;3.00;;;16.20;93.20;;;;;;5018521;28;20386;-60
2021/10/17 11:36:16;;;;;;;6.20;2.47;;;16.20;93.10;;;;;;5017091;28;20053;-60
2021/10/17 11:38:44;;;;;;;4.40;1.95;;;16.30;92.90;;;;;;5015908;28;20128;-60
2021/10/17 11:41:15;;;;;;;5.10;2.63;;;16.30;92.70;;;;;;5012252;28;20176;-60
2021/10/17 11:44:01;;;;;;;4.45;2.10;;;16.30;93.10;;;;;;5017011;28;20480;-60
2021/10/17 11:46:29;;;;;;;3.97;2.33;;;16.40;92.90;;;;;;5019195;28;20084;-60
2021/10/17 11:49:03;;;;;;;6.88;2.25;;;16.40;92.50;;;;;;5014339;28;20122;-60
2021/10/17 11:51:30;;;;;;;5.47;1.88;;;16.40;92.50;;;;;;5015058;28;20087;-60
2021/10/17 11:53:58;;;;;;;6.53;2.08;;;16.50;92.30;;;;;;5017732;28;20299;-60
2021/10/17 11:56:25;;;;;;;6.43;2.45;;;16.60;91.60;;;;;;5015807;28;20045;-60
2021/10/17 11:58:52;;;;;;;5.90;2.00;;;16.60;91.60;;;;;;5016039;28;20061;-60
2021/10/17 12:01:19;;;;;;;6.38;2.00;;;16.60;91.30;;;;;;5017643;28;20647;-59
2021/10/17 12:03:50;;;;;;;5.43;1.55;;;16.60;91.10;;;;;;5013742;28;20057;-59
2021/10/17 12:06:20;;;;;;;4.47;1.67;;;16.60;91.30;;;;;;5015973;28;20057;-60
2021/10/17 12:08:56;;;;;;;4.07;1.63;;;16.60;90.60;;;;;;5015924;28;20560;-60
2021/10/17 12:11:23;;;;;;;5.18;1.90;;;16.60;90.00;;;;;;5015672;28;20068;-60
2021/10/17 12:13:52;;;;;;;4.75;1.73;;;16.60;88.50;;;;;;5011291;28;20130;-61
2021/10/17 12:16:44;;;;;;;7.65;1.60;;;16.70;90.00;;;;;;5017597;28;20076;-60
2021/10/17 12:19:13;;;;;;;4.97;1.55;;;16.70;89.30;;;;;;5014362;28;20158;-59
2021/10/17 12:21:46;;;;;;;5.22;1.70;;;16.80;87.70;;;;;;5016560;28;20049;-59
2021/10/17 12:24:13;;;;;;;5.03;1.63;;;16.90;86.70;;;;;;5030505;28;20057;-60
2021/10/17 12:26:56;;;;;;;7.43;2.08;;;17.00;89.30;;;;;;4999816;28;20152;-59
2021/10/17 12:29:29;;;;;;;5.78;2.03;;;17.10;84.50;;;;;;5016966;28;20048;-60
2021/10/17 12:31:58;;;;;;;10.05;2.60;;;17.20;87.50;;;;;;5019918;28;20493;-60
2021/10/17 12:34:40;;;;;;;5.47;2.28;;;17.30;86.30;;;;;;5015746;28;21018;-60
2021/10/17 12:37:08;;;;;;;4.80;2.05;;;17.30;83.90;;;;;;5018862;28;20057;-59
2021/10/17 12:39:34;;;;;;;7.82;2.45;;;17.30;86.50;;;;;;5018179;28;20048;-59
2021/10/17 12:42:01;;;;;;;5.07;1.83;;;17.40;86.20;;;;;;5018812;28;20175;-59